Pagrindinis puslapis
METAR-TAF:

METAR-TAF

Oro uostai :

Cayman Brac, Kaimanų salos

platuma: 19-41-13N, ilguma: 079-52-58W, Aukštis: 2 m

Dabartinis oras

Ataskaita buvo paskelbta 9 valandos ir 25 minutes, ne 00:00 UTC
Vėjas 3 kt iš Rytų
Temperatūra 28°C
Drėgmė 79%
Slėgis 1013 hPa
Matomumas 10 km arba daugiau
Mažai debesys ne aukštis 2200 ft

METAR: MWCB 270000Z 09003KT 9999 FEW022 28/24 Q1013

Laikas: 04:25 (09:25 UTC)

Prognozė

Ataskaita buvo paskelbta 16 valandos ir 25 minutes, ne 17:00 UTC
Prognozė galioja nuo 26 metu 18 UTC su 27 metu 18 UTC
Vėjas 5 kt iš Pietryčių
Matomumas 10 km arba daugiau
Mažai debesys ne aukštis 1800 ft
Laikinai
nuo 26 metu 19 UTC su 26 metu 23 UTC
Matomumas: 9000 m
Išsisklaidę debesys ne aukštis 1600 ft, Liūtiniai kamuoliniai debesys.
lietus

TAF: MWCB 261700Z 2618/2718 13005KT 9999 FEW018 TEMPO 2619/2623 9000 SHRA SCT016CB

Orai ataskaitas ir orų prognozės (METAR, TAF).

turimą stotys yra geltonos ir raudonos taškus žemėlapyje.

Perkelti pele per norėdami pamatyti stoties vardą.

Tada spustelėkite, norėdami matyti oro stebėjimo ir prognozės.

Norėdami pakeisti žemėlapį: spustelėkite ant žalios mygtukų su juodo kryžiaus žemyn,; žalią mygtuką su brūkšneliu, jei norite nutolinti; arba žalių rodyklių gretimoms žemėlapius.


METAR-TAF: